Time;durP1;ratioP1;P1;durP2;ratioP2;P2;SDS_P1;SDS_P2;PMS_P1;PMS_P2;Temp;Humidity;BMP_temperature;BMP_pressure;BME280_temperature;BME280_humidity;BME280_pressure;Samples;Min_cycle;Max_cycle;Signal;HPM_P1;HPM_P2
2022/04/24 00:00:59;;;;;;;7.13;6.43;;;;;;;;;;5001783;28;20469;-79
2022/04/24 00:03:25;;;;;;;6.80;6.10;;;;;;;;;;5001009;28;20440;-79
2022/04/24 00:05:51;;;;;;;8.20;7.10;;;;;;;;;;5002096;28;20637;-79
2022/04/24 00:08:17;;;;;;;6.50;5.47;;;;;;;;;;5003462;28;20422;-79
2022/04/24 00:10:43;;;;;;;8.03;6.43;;;;;;;;;;5001394;28;20445;-79
2022/04/24 00:13:11;;;;;;;7.82;5.65;;;;;;;;;;4989565;28;20446;-79
2022/04/24 00:15:37;;;;;;;6.45;5.85;;;;;;;;;;4999595;28;20215;-79
2022/04/24 00:18:03;;;;;;;7.40;6.70;;;;;;;;;;4985095;28;20218;-80
2022/04/24 00:20:29;;;;;;;5.82;5.32;;;;;;;;;;4987580;28;20496;-79
2022/04/24 00:22:55;;;;;;;6.53;5.80;;;;;;;;;;4979371;28;20184;-79
2022/04/24 00:25:21;;;;;;;7.00;6.30;;;;;;;;;;4996781;28;20430;-79
2022/04/24 00:27:47;;;;;;;6.68;6.05;;;;;;;;;;4986509;28;20179;-79
2022/04/24 00:30:13;;;;;;;8.10;5.75;;;;;;;;;;5000976;28;20196;-80
2022/04/24 00:32:39;;;;;;;9.35;6.32;;;;;;;;;;5003795;28;20234;-79
2022/04/24 00:35:06;;;;;;;7.68;6.93;;;;;;;;;;5001326;28;20191;-79
2022/04/24 00:37:31;;;;;;;7.25;5.80;;;;;;;;;;4988201;28;20211;-79
2022/04/24 00:39:57;;;;;;;6.63;6.03;;;;;;;;;;4987127;28;20187;-79
2022/04/24 00:42:23;;;;;;;6.10;5.60;;;;;;;;;;4987833;28;20446;-80
2022/04/24 00:44:49;;;;;;;7.18;5.85;;;;;;;;;;5002655;28;28524;-79
2022/04/24 00:47:21;;;;;;;8.10;7.13;;;;;;;;;;5003110;28;20237;-80
2022/04/24 00:49:47;;;;;;;5.82;5.22;;;;;;;;;;4987930;28;20183;-79
2022/04/24 00:52:13;;;;;;;8.23;7.00;;;;;;;;;;4999164;28;20260;-79
2022/04/24 00:54:40;;;;;;;9.20;6.95;;;;;;;;;;5000001;28;20210;-79
2022/04/24 00:57:06;;;;;;;9.48;7.20;;;;;;;;;;5000501;28;20184;-79
2022/04/24 00:59:32;;;;;;;7.93;7.13;;;;;;;;;;5004208;28;20198;-79
2022/04/24 01:01:59;;;;;;;8.52;6.50;;;;;;;;;;5001825;28;20171;-79
2022/04/24 01:04:25;;;;;;;7.68;6.88;;;;;;;;;;5000383;28;20194;-79
2022/04/24 01:06:51;;;;;;;8.80;7.47;;;;;;;;;;4986660;28;20178;-79
2022/04/24 01:09:17;;;;;;;9.38;7.65;;;;;;;;;;5000102;28;20203;-79
2022/04/24 01:11:44;;;;;;;7.72;6.90;;;;;;;;;;4984479;28;20183;-79
2022/04/24 01:14:10;;;;;;;8.70;7.80;;;;;;;;;;5000064;28;20183;-79
2022/04/24 01:16:37;;;;;;;8.00;7.30;;;;;;;;;;5000494;28;20288;-79
2022/04/24 01:19:04;;;;;;;8.95;6.85;;;;;;;;;;4999653;28;20318;-79
2022/04/24 01:21:30;;;;;;;7.68;6.88;;;;;;;;;;5000276;28;20195;-79
2022/04/24 01:23:56;;;;;;;10.32;7.00;;;;;;;;;;4983961;28;20179;-79
2022/04/24 01:26:22;;;;;;;8.68;6.50;;;;;;;;;;4986078;28;20187;-79
2022/04/24 01:28:48;;;;;;;8.27;5.88;;;;;;;;;;4997102;28;20195;-78
2022/04/24 01:31:14;;;;;;;6.72;6.13;;;;;;;;;;5000059;28;20250;-79
2022/04/24 01:33:40;;;;;;;7.47;6.72;;;;;;;;;;4987633;28;20246;-79
2022/04/24 01:36:06;;;;;;;7.82;6.55;;;;;;;;;;4998728;28;20188;-79
2022/04/24 01:38:33;;;;;;;7.95;6.43;;;;;;;;;;4985582;28;20694;-79
2022/04/24 01:40:59;;;;;;;9.77;6.50;;;;;;;;;;5001378;28;20175;-79
2022/04/24 01:43:25;;;;;;;9.05;6.60;;;;;;;;;;4987923;28;20214;-79
2022/04/24 01:45:51;;;;;;;7.20;6.50;;;;;;;;;;4988291;28;20187;-79
2022/04/24 01:48:17;;;;;;;8.00;7.20;;;;;;;;;;4989922;28;20441;-79
2022/04/24 01:50:43;;;;;;;8.03;7.23;;;;;;;;;;5006436;28;20186;-79
2022/04/24 01:53:09;;;;;;;7.23;6.60;;;;;;;;;;5006028;28;20752;-79
2022/04/24 01:55:35;;;;;;;10.07;7.82;;;;;;;;;;4991213;28;20529;-79
2022/04/24 01:58:01;;;;;;;6.65;5.93;;;;;;;;;;5003281;28;20286;-79
2022/04/24 02:00:28;;;;;;;7.47;6.77;;;;;;;;;;5004478;28;20390;-79
2022/04/24 02:02:54;;;;;;;8.13;6.88;;;;;;;;;;4986732;28;20439;-78
2022/04/24 02:05:20;;;;;;;7.40;6.80;;;;;;;;;;5005683;28;20175;-79
2022/04/24 02:07:46;;;;;;;6.65;5.85;;;;;;;;;;4990995;28;20446;-78
2022/04/24 02:10:12;;;;;;;7.28;6.13;;;;;;;;;;4989488;28;20202;-78
2022/04/24 02:12:40;;;;;;;6.65;6.05;;;;;;;;;;5003495;28;20214;-78
2022/04/24 02:15:09;;;;;;;9.80;7.38;;;;;;;;;;4987288;28;20188;-79
2022/04/24 02:17:35;;;;;;;8.23;6.25;;;;;;;;;;4987361;28;20187;-78
2022/04/24 02:20:01;;;;;;;6.82;6.15;;;;;;;;;;5004392;28;20252;-78
2022/04/24 02:22:32;;;;;;;8.20;6.88;;;;;;;;;;4990119;28;20720;-79
2022/04/24 02:24:58;;;;;;;8.00;6.72;;;;;;;;;;4989620;28;20187;-79
2022/04/24 02:27:24;;;;;;;7.03;6.33;;;;;;;;;;4990124;28;20539;-78
2022/04/24 02:29:50;;;;;;;7.68;6.70;;;;;;;;;;5004688;28;20453;-79
2022/04/24 02:32:16;;;;;;;7.10;5.97;;;;;;;;;;5005619;28;20230;-78
2022/04/24 02:34:42;;;;;;;7.35;6.43;;;;;;;;;;5002303;28;20215;-79
2022/04/24 02:37:08;;;;;;;8.85;6.22;;;;;;;;;;5004872;28;20267;-79
2022/04/24 02:39:35;;;;;;;10.10;6.73;;;;;;;;;;5003205;28;20266;-78
2022/04/24 02:42:01;;;;;;;8.70;6.72;;;;;;;;;;5003171;28;20469;-79
2022/04/24 02:44:27;;;;;;;6.55;5.95;;;;;;;;;;4989644;28;20178;-79
2022/04/24 02:46:53;;;;;;;7.28;6.10;;;;;;;;;;4991002;28;20184;-79
2022/04/24 02:49:19;;;;;;;6.90;6.20;;;;;;;;;;4999766;28;20183;-79
2022/04/24 02:51:45;;;;;;;8.73;7.00;;;;;;;;;;4989273;28;20183;-79
2022/04/24 02:54:11;;;;;;;7.00;6.28;;;;;;;;;;5002649;28;20213;-79
2022/04/24 02:56:37;;;;;;;9.52;6.63;;;;;;;;;;5004126;28;20191;-79
2022/04/24 02:59:04;;;;;;;7.32;6.57;;;;;;;;;;5003768;28;20246;-79
2022/04/24 03:01:30;;;;;;;8.18;6.03;;;;;;;;;;5002433;28;20175;-78
2022/04/24 03:03:56;;;;;;;7.15;6.40;;;;;;;;;;5001560;28;20198;-78
2022/04/24 03:06:22;;;;;;;7.68;5.82;;;;;;;;;;5002096;28;20179;-79
2022/04/24 03:08:48;;;;;;;7.80;6.53;;;;;;;;;;4985938;28;20210;-78
2022/04/24 03:11:15;;;;;;;7.20;6.07;;;;;;;;;;5005671;28;20183;-79
2022/04/24 03:13:41;;;;;;;8.02;7.28;;;;;;;;;;5004270;28;20191;-79
2022/04/24 03:16:07;;;;;;;9.15;7.72;;;;;;;;;;5001814;28;20230;-79
2022/04/24 03:18:33;;;;;;;7.90;7.10;;;;;;;;;;5001948;28;20203;-78
2022/04/24 03:20:59;;;;;;;9.93;7.47;;;;;;;;;;4986977;28;20184;-79
2022/04/24 03:23:25;;;;;;;7.90;7.10;;;;;;;;;;4988094;28;20171;-79
2022/04/24 03:25:51;;;;;;;7.10;6.43;;;;;;;;;;5000367;28;20214;-78
2022/04/24 03:28:17;;;;;;;7.45;6.75;;;;;;;;;;4996895;28;20472;-78
2022/04/24 03:30:44;;;;;;;8.98;6.60;;;;;;;;;;5001617;28;20302;-78
2022/04/24 03:33:10;;;;;;;6.97;6.30;;;;;;;;;;5002825;28;20661;-78
2022/04/24 03:35:36;;;;;;;11.13;6.57;;;;;;;;;;5004177;28;20222;-78
2022/04/24 03:38:02;;;;;;;8.98;6.68;;;;;;;;;;5002957;28;20203;-78
2022/04/24 03:40:28;;;;;;;8.65;7.85;;;;;;;;;;5001844;28;20175;-78
2022/04/24 03:42:54;;;;;;;9.10;6.55;;;;;;;;;;5001574;28;20703;-78
2022/04/24 03:45:20;;;;;;;7.10;6.40;;;;;;;;;;5001878;28;20190;-78
2022/04/24 03:47:51;;;;;;;7.60;6.05;;;;;;;;;;5004189;28;20254;-78
2022/04/24 03:50:21;;;;;;;7.32;6.63;;;;;;;;;;5004042;28;20226;-78
2022/04/24 03:52:47;;;;;;;8.38;7.32;;;;;;;;;;5001091;28;20454;-78
2022/04/24 03:55:13;;;;;;;7.65;6.82;;;;;;;;;;4989123;28;20183;-78
2022/04/24 03:57:39;;;;;;;8.10;7.30;;;;;;;;;;4987440;28;20194;-78
2022/04/24 04:00:07;;;;;;;7.72;6.93;;;;;;;;;;5001823;28;20810;-78
2022/04/24 04:02:41;;;;;;;7.57;6.78;;;;;;;;;;4987236;28;20175;-79
2022/04/24 04:05:07;;;;;;;8.20;6.57;;;;;;;;;;5002459;28;20280;-78
2022/04/24 04:07:33;;;;;;;7.63;5.85;;;;;;;;;;5001687;28;20643;-78
2022/04/24 04:10:00;;;;;;;6.55;5.85;;;;;;;;;;4996203;28;20179;-78
2022/04/24 04:12:27;;;;;;;7.43;6.55;;;;;;;;;;4989460;28;20191;-79
2022/04/24 04:14:53;;;;;;;8.13;7.15;;;;;;;;;;5001384;28;20191;-78
2022/04/24 04:17:19;;;;;;;8.52;7.57;;;;;;;;;;4988614;28;20219;-78
2022/04/24 04:19:45;;;;;;;7.53;6.65;;;;;;;;;;4998966;28;20230;-78
2022/04/24 04:22:11;;;;;;;8.68;7.38;;;;;;;;;;4983709;28;20208;-78
2022/04/24 04:24:37;;;;;;;7.28;6.18;;;;;;;;;;4999959;28;20211;-78
2022/04/24 04:27:03;;;;;;;7.80;6.70;;;;;;;;;;4984684;28;20195;-77
2022/04/24 04:29:29;;;;;;;10.13;7.57;;;;;;;;;;5004588;28;20197;-77
2022/04/24 04:31:56;;;;;;;8.43;7.07;;;;;;;;;;4989043;28;20648;-78
2022/04/24 04:34:22;;;;;;;11.73;7.85;;;;;;;;;;5001955;28;20242;-77
2022/04/24 04:36:48;;;;;;;9.63;7.15;;;;;;;;;;5000656;28;20191;-78
2022/04/24 04:39:14;;;;;;;9.50;8.50;;;;;;;;;;5001841;28;20227;-78
2022/04/24 04:41:40;;;;;;;8.77;7.47;;;;;;;;;;4984971;28;20542;-78
2022/04/24 04:44:06;;;;;;;7.85;6.88;;;;;;;;;;4987006;28;20178;-78
2022/04/24 04:46:32;;;;;;;7.43;6.55;;;;;;;;;;4998504;28;20246;-78
2022/04/24 04:48:58;;;;;;;8.95;7.40;;;;;;;;;;4999983;28;20222;-77
2022/04/24 04:51:24;;;;;;;9.53;6.90;;;;;;;;;;5000690;28;20193;-78
2022/04/24 04:53:54;;;;;;;10.23;6.90;;;;;;;;;;5002114;28;20414;-78
2022/04/24 04:56:20;;;;;;;9.65;7.63;;;;;;;;;;4968065;28;20271;-78
2022/04/24 04:58:46;;;;;;;8.25;7.45;;;;;;;;;;4997066;28;20313;-77
2022/04/24 05:01:12;;;;;;;9.02;8.13;;;;;;;;;;4999791;28;20182;-78
2022/04/24 05:03:38;;;;;;;9.32;7.65;;;;;;;;;;5000245;28;20214;-77
2022/04/24 05:06:04;;;;;;;10.43;8.70;;;;;;;;;;5002081;28;20191;-78
2022/04/24 05:08:30;;;;;;;9.40;7.80;;;;;;;;;;5004369;28;20438;-78
2022/04/24 05:10:56;;;;;;;9.50;7.35;;;;;;;;;;4972379;28;20439;-77
2022/04/24 05:13:22;;;;;;;8.48;7.60;;;;;;;;;;4994598;28;20186;-77
2022/04/24 05:15:48;;;;;;;9.23;8.23;;;;;;;;;;4977164;28;20219;-77
2022/04/24 05:18:14;;;;;;;11.35;7.85;;;;;;;;;;4964723;28;20212;-77
2022/04/24 05:20:42;;;;;;;10.73;7.65;;;;;;;;;;4965952;28;20617;-78
2022/04/24 05:23:08;;;;;;;9.55;6.97;;;;;;;;;;4982618;28;20239;-77
2022/04/24 05:25:35;;;;;;;11.07;8.07;;;;;;;;;;4965850;28;20184;-77
2022/04/24 05:28:02;;;;;;;10.45;7.45;;;;;;;;;;4979732;28;20188;-78
2022/04/24 05:30:28;;;;;;;8.93;7.55;;;;;;;;;;4980427;28;20250;-78
2022/04/24 05:32:54;;;;;;;7.53;6.82;;;;;;;;;;4981789;28;20276;-78
2022/04/24 05:35:20;;;;;;;8.30;7.43;;;;;;;;;;4982648;28;20168;-77
2022/04/24 05:37:47;;;;;;;9.77;7.38;;;;;;;;;;4963366;28;20584;-77
2022/04/24 05:40:13;;;;;;;7.53;6.00;;;;;;;;;;4981929;28;20176;-77
2022/04/24 05:42:51;;;;;;;10.00;8.32;;;;;;;;;;4964504;28;20192;-78
2022/04/24 05:45:18;;;;;;;8.32;7.10;;;;;;;;;;4980016;28;20176;-77
2022/04/24 05:47:45;;;;;;;8.23;7.28;;;;;;;;;;4982442;28;20172;-78
2022/04/24 05:50:11;;;;;;;9.43;8.38;;;;;;;;;;4981308;28;20518;-78
2022/04/24 05:52:37;;;;;;;8.88;7.10;;;;;;;;;;4979798;28;20222;-78
2022/04/24 05:55:03;;;;;;;8.75;7.85;;;;;;;;;;4980702;28;20179;-78
2022/04/24 05:57:29;;;;;;;8.10;6.78;;;;;;;;;;4965498;28;20188;-77
2022/04/24 05:59:55;;;;;;;10.90;8.23;;;;;;;;;;4982190;28;20185;-78
2022/04/24 06:02:21;;;;;;;8.30;7.00;;;;;;;;;;4966679;28;20514;-78
2022/04/24 06:04:47;;;;;;;8.97;7.80;;;;;;;;;;4978902;28;20442;-82
2022/04/24 06:07:13;;;;;;;9.77;7.37;;;;;;;;;;4980514;28;20458;-80
2022/04/24 06:09:39;;;;;;;8.53;7.13;;;;;;;;;;4962338;28;20455;-80
2022/04/24 06:12:06;;;;;;;8.97;8.07;;;;;;;;;;4964550;28;20462;-79
2022/04/24 06:14:32;;;;;;;12.40;8.45;;;;;;;;;;4983772;28;20899;-80
2022/04/24 06:17:00;;;;;;;9.80;8.20;;;;;;;;;;4981945;28;20227;-79
2022/04/24 06:19:25;;;;;;;11.38;9.15;;;;;;;;;;4973151;28;20272;-80
2022/04/24 06:21:51;;;;;;;9.97;8.80;;;;;;;;;;4991927;28;20214;-80
2022/04/24 06:24:17;;;;;;;9.77;8.53;;;;;;;;;;4974887;28;20442;-80
2022/04/24 06:26:46;;;;;;;11.33;8.60;;;;;;;;;;4982423;28;20415;-79
2022/04/24 06:29:13;;;;;;;12.65;9.50;;;;;;;;;;4982176;28;20423;-79
2022/04/24 06:31:39;;;;;;;10.75;9.13;;;;;;;;;;4970961;28;20192;-80
2022/04/24 06:34:06;;;;;;;10.30;9.23;;;;;;;;;;4971474;28;20184;-80
2022/04/24 06:36:32;;;;;;;9.82;8.85;;;;;;;;;;4977098;28;20195;-80
2022/04/24 06:39:00;;;;;;;10.77;8.68;;;;;;;;;;4982897;28;20204;-80
2022/04/24 06:41:26;;;;;;;10.15;8.25;;;;;;;;;;4978870;28;20187;-80
2022/04/24 06:43:52;;;;;;;8.45;7.55;;;;;;;;;;4984348;28;20187;-79
2022/04/24 06:46:19;;;;;;;11.07;8.97;;;;;;;;;;4979717;28;20246;-79
2022/04/24 06:48:45;;;;;;;11.73;9.43;;;;;;;;;;4981841;28;20525;-79
2022/04/24 06:51:11;;;;;;;13.60;10.05;;;;;;;;;;4978934;28;20188;-79
2022/04/24 06:53:38;;;;;;;11.03;8.60;;;;;;;;;;4987909;28;20187;-79
2022/04/24 06:56:04;;;;;;;11.30;9.32;;;;;;;;;;4976950;28;20431;-79
2022/04/24 06:58:30;;;;;;;9.63;8.63;;;;;;;;;;4983745;28;20222;-79
2022/04/24 07:00:56;;;;;;;16.20;11.40;;;;;;;;;;4975548;28;20677;-79
2022/04/24 07:03:23;;;;;;;10.38;9.20;;;;;;;;;;4967310;28;20450;-80
2022/04/24 07:05:53;;;;;;;10.57;9.45;;;;;;;;;;4982991;28;20179;-80
2022/04/24 07:08:19;;;;;;;13.05;11.20;;;;;;;;;;4981776;28;20206;-77
2022/04/24 07:10:45;;;;;;;14.55;12.20;;;;;;;;;;4963009;28;20547;-77
2022/04/24 07:13:11;;;;;;;12.55;10.45;;;;;;;;;;4980754;28;20636;-77
2022/04/24 07:15:39;;;;;;;11.85;10.48;;;;;;;;;;4970427;28;20222;-78
2022/04/24 07:18:05;;;;;;;15.10;12.82;;;;;;;;;;4982599;28;20231;-78
2022/04/24 07:20:32;;;;;;;14.70;12.30;;;;;;;;;;4984728;28;20284;-78
2022/04/24 07:23:00;;;;;;;16.15;11.77;;;;;;;;;;4983639;28;20191;-79
2022/04/24 07:25:27;;;;;;;15.38;13.77;;;;;;;;;;4987432;28;20191;-77
2022/04/24 07:27:53;;;;;;;14.63;13.07;;;;;;;;;;5000945;28;20648;-78
2022/04/24 07:30:20;;;;;;;17.65;13.25;;;;;;;;;;5001893;28;20194;-77
2022/04/24 07:32:49;;;;;;;15.07;12.15;;;;;;;;;;4993990;28;20179;-78
2022/04/24 07:35:16;;;;;;;13.57;11.40;;;;;;;;;;4986667;28;20183;-78
2022/04/24 07:37:42;;;;;;;15.40;12.52;;;;;;;;;;5001567;28;20747;-77
2022/04/24 07:40:09;;;;;;;17.35;13.02;;;;;;;;;;5000336;28;20221;-78
2022/04/24 07:42:49;;;;;;;14.60;12.60;;;;;;;;;;5000239;28;20195;-78
2022/04/24 07:45:18;;;;;;;17.10;13.60;;;;;;;;;;4994151;28;20180;-78
2022/04/24 07:47:46;;;;;;;15.45;13.38;;;;;;;;;;5003738;28;20179;-77
2022/04/24 07:50:13;;;;;;;16.10;12.23;;;;;;;;;;5002424;28;20182;-78
2022/04/24 07:52:39;;;;;;;15.77;13.75;;;;;;;;;;4984139;28;20246;-77
2022/04/24 07:55:06;;;;;;;14.13;12.25;;;;;;;;;;4997472;28;20270;-77
2022/04/24 07:57:31;;;;;;;19.25;15.77;;;;;;;;;;4984110;28;20264;-78
2022/04/24 07:59:58;;;;;;;17.07;13.57;;;;;;;;;;4985883;28;20201;-78
2022/04/24 08:02:24;;;;;;;20.58;15.50;;;;;;;;;;4985993;28;20417;-77
2022/04/24 08:04:50;;;;;;;19.55;13.82;;;;;;;;;;4996613;28;20255;-78
2022/04/24 08:07:17;;;;;;;19.87;15.67;;;;;;;;;;4981836;28;20189;-78
2022/04/24 08:09:43;;;;;;;17.15;13.90;;;;;;;;;;4991701;28;20962;-78
2022/04/24 08:12:09;;;;;;;19.45;13.95;;;;;;;;;;4995506;28;20247;-78
2022/04/24 08:14:35;;;;;;;18.10;15.80;;;;;;;;;;4995275;28;20184;-77
2022/04/24 08:17:01;;;;;;;16.40;13.90;;;;;;;;;;5004887;28;20235;-77
2022/04/24 08:19:27;;;;;;;14.97;13.47;;;;;;;;;;4998365;28;20535;-79
2022/04/24 08:21:53;;;;;;;22.90;15.73;;;;;;;;;;5002152;28;20454;-78
2022/04/24 08:24:19;;;;;;;16.57;14.07;;;;;;;;;;5001178;28;20504;-77
2022/04/24 08:26:45;;;;;;;20.55;15.20;;;;;;;;;;4985991;28;20455;-78
2022/04/24 08:29:11;;;;;;;20.60;14.73;;;;;;;;;;5002575;28;20231;-77
2022/04/24 08:31:37;;;;;;;17.33;15.33;;;;;;;;;;5001497;28;20445;-77
2022/04/24 08:34:03;;;;;;;17.43;15.13;;;;;;;;;;5000307;28;20442;-78
2022/04/24 08:36:29;;;;;;;18.90;14.73;;;;;;;;;;4986066;28;20437;-77
2022/04/24 08:38:55;;;;;;;16.43;14.30;;;;;;;;;;5002498;28;20532;-78
2022/04/24 08:41:22;;;;;;;18.17;15.43;;;;;;;;;;4999418;28;20491;-77
2022/04/24 08:43:48;;;;;;;15.43;13.63;;;;;;;;;;5000994;28;20186;-78
2022/04/24 08:46:14;;;;;;;20.02;15.73;;;;;;;;;;5000526;28;20190;-79
2022/04/24 08:48:45;;;;;;;17.13;14.27;;;;;;;;;;5000610;28;20180;-78
2022/04/24 08:51:11;;;;;;;16.35;14.40;;;;;;;;;;4986536;28;20209;-78
2022/04/24 08:53:39;;;;;;;18.08;15.85;;;;;;;;;;5003389;28;20246;-80
2022/04/24 08:56:05;;;;;;;20.00;15.00;;;;;;;;;;5003102;28;20189;-79
2022/04/24 08:58:32;;;;;;;20.30;15.48;;;;;;;;;;4987956;28;20210;-77
2022/04/24 09:00:58;;;;;;;18.90;15.40;;;;;;;;;;4988245;28;20213;-78
2022/04/24 09:03:24;;;;;;;19.42;16.60;;;;;;;;;;5000611;28;20202;-78
2022/04/24 09:05:50;;;;;;;18.93;15.30;;;;;;;;;;5001197;28;20190;-78
2022/04/24 09:08:16;;;;;;;21.10;15.57;;;;;;;;;;4971889;28;20435;-77
2022/04/24 09:10:51;;;;;;;21.45;15.32;;;;;;;;;;4999046;28;20213;-78
2022/04/24 09:13:30;;;;;;;23.88;16.40;;;;;;;;;;4999503;28;20190;-79
2022/04/24 09:16:02;;;;;;;23.20;15.90;;;;;;;;;;4993736;28;20225;-77
2022/04/24 09:18:39;;;;;;;20.25;16.85;;;;;;;;;;4966684;28;20234;-78
2022/04/24 09:21:05;;;;;;;16.27;14.25;;;;;;;;;;4966357;28;20376;-78
2022/04/24 09:23:35;;;;;;;20.00;15.40;;;;;;;;;;4967426;28;20239;-78
2022/04/24 09:26:01;;;;;;;18.58;15.93;;;;;;;;;;4981831;28;20407;-78
2022/04/24 09:28:36;;;;;;;17.60;15.10;;;;;;;;;;4966191;28;20197;-78
2022/04/24 09:31:03;;;;;;;17.80;14.60;;;;;;;;;;4980931;28;20183;-78
2022/04/24 09:33:35;;;;;;;17.83;15.85;;;;;;;;;;4966207;28;20183;-78
2022/04/24 09:36:02;;;;;;;17.83;15.20;;;;;;;;;;4948961;28;20190;-79
2022/04/24 09:38:28;;;;;;;17.73;14.90;;;;;;;;;;4963092;28;20291;-79
2022/04/24 09:40:54;;;;;;;18.67;15.45;;;;;;;;;;4981244;28;20183;-80
2022/04/24 09:43:20;;;;;;;17.42;15.57;;;;;;;;;;4965799;28;20195;-78
2022/04/24 09:45:50;;;;;;;19.00;14.88;;;;;;;;;;4966334;28;20180;-80
2022/04/24 09:48:17;;;;;;;15.30;12.98;;;;;;;;;;4981113;28;20184;-78
2022/04/24 09:50:44;;;;;;;16.05;13.27;;;;;;;;;;4965397;28;20250;-78
2022/04/24 09:53:14;;;;;;;18.20;16.30;;;;;;;;;;4982652;28;20282;-79
2022/04/24 09:55:43;;;;;;;18.02;14.43;;;;;;;;;;4980582;28;20180;-78
2022/04/24 09:58:10;;;;;;;15.23;13.57;;;;;;;;;;4981983;28;20203;-78
2022/04/24 10:00:36;;;;;;;15.48;12.80;;;;;;;;;;4966699;28;20675;-79
2022/04/24 10:03:02;;;;;;;14.73;11.95;;;;;;;;;;4980276;28;20195;-78
2022/04/24 10:05:32;;;;;;;17.05;13.35;;;;;;;;;;4984205;28;20182;-78
2022/04/24 10:08:01;;;;;;;15.88;14.35;;;;;;;;;;4985444;28;20199;-79
2022/04/24 10:10:27;;;;;;;17.20;13.95;;;;;;;;;;4984591;28;20180;-80
2022/04/24 10:12:54;;;;;;;15.60;13.93;;;;;;;;;;4983628;28;20255;-78
2022/04/24 10:15:21;;;;;;;17.02;14.80;;;;;;;;;;4980598;28;20448;-78
2022/04/24 10:17:59;;;;;;;15.65;13.50;;;;;;;;;;4987260;28;20187;-80
2022/04/24 10:20:35;;;;;;;15.77;13.07;;;;;;;;;;4991333;28;20202;-78
2022/04/24 10:23:01;;;;;;;15.55;13.88;;;;;;;;;;5004065;28;20171;-79
2022/04/24 10:25:37;;;;;;;15.65;13.52;;;;;;;;;;4985702;28;20325;-80
2022/04/24 10:28:19;;;;;;;14.10;12.40;;;;;;;;;;5003399;28;20206;-77
2022/04/24 10:30:59;;;;;;;13.70;12.27;;;;;;;;;;5003736;28;20194;-79
2022/04/24 10:33:26;;;;;;;13.23;11.82;;;;;;;;;;5003118;28;20206;-78
2022/04/24 10:35:53;;;;;;;13.02;11.73;;;;;;;;;;4987013;28;20576;-78
2022/04/24 10:38:20;;;;;;;13.30;12.00;;;;;;;;;;5006482;28;20199;-78
2022/04/24 10:40:59;;;;;;;12.95;11.60;;;;;;;;;;4987738;28;20195;-79
2022/04/24 10:43:25;;;;;;;14.27;12.88;;;;;;;;;;4983988;28;20218;-80
2022/04/24 10:45:52;;;;;;;15.23;13.63;;;;;;;;;;5006524;28;20213;-79
2022/04/24 10:48:19;;;;;;;13.95;12.57;;;;;;;;;;5001785;28;20191;-78
2022/04/24 10:50:49;;;;;;;15.40;13.85;;;;;;;;;;4988154;28;20179;-80
2022/04/24 10:53:15;;;;;;;13.77;12.38;;;;;;;;;;5005299;28;20581;-82
2022/04/24 10:55:42;;;;;;;15.80;12.05;;;;;;;;;;5000309;28;20179;-77
2022/04/24 10:58:09;;;;;;;13.88;12.43;;;;;;;;;;4985268;28;20198;-78
2022/04/24 11:00:36;;;;;;;14.43;12.85;;;;;;;;;;5001744;28;20336;-79
2022/04/24 11:03:07;;;;;;;13.05;11.07;;;;;;;;;;4998947;28;20524;-78
2022/04/24 11:05:36;;;;;;;14.93;13.07;;;;;;;;;;5000401;28;20294;-80
2022/04/24 11:08:03;;;;;;;15.65;12.77;;;;;;;;;;5001583;28;20182;-81
2022/04/24 11:10:29;;;;;;;14.52;13.02;;;;;;;;;;5002798;28;20266;-77
2022/04/24 11:12:56;;;;;;;13.75;12.23;;;;;;;;;;5002073;28;20198;-79
2022/04/24 11:15:22;;;;;;;14.57;13.07;;;;;;;;;;5000370;28;20184;-81
2022/04/24 11:17:48;;;;;;;14.35;12.88;;;;;;;;;;4987051;28;20184;-81
2022/04/24 11:20:15;;;;;;;14.20;12.63;;;;;;;;;;4987462;28;20175;-77
2022/04/24 11:22:47;;;;;;;12.90;11.50;;;;;;;;;;4986684;28;20237;-80
2022/04/24 11:25:14;;;;;;;13.07;11.77;;;;;;;;;;5003257;28;20186;-79
2022/04/24 11:27:41;;;;;;;12.88;11.68;;;;;;;;;;4985568;28;20192;-78
2022/04/24 11:30:14;;;;;;;11.43;10.27;;;;;;;;;;4998533;28;20233;-78
2022/04/24 11:32:40;;;;;;;12.63;11.38;;;;;;;;;;4986709;28;20272;-77
2022/04/24 11:35:10;;;;;;;13.30;12.10;;;;;;;;;;4987644;28;20176;-78
2022/04/24 11:37:36;;;;;;;12.27;10.98;;;;;;;;;;5001982;28;20200;-78
2022/04/24 11:40:03;;;;;;;12.73;11.33;;;;;;;;;;4989527;28;20257;-77
2022/04/24 11:42:29;;;;;;;13.10;10.43;;;;;;;;;;4983659;28;20465;-77
2022/04/24 11:50:25;;;;;;;11.32;10.15;;;;;;;;;;5005706;28;20205;-77
2022/04/24 11:52:51;;;;;;;10.25;9.25;;;;;;;;;;5000631;28;20191;-77
2022/04/24 11:55:21;;;;;;;14.43;11.70;;;;;;;;;;5002417;28;20212;-77
2022/04/24 11:57:57;;;;;;;12.30;10.70;;;;;;;;;;5001966;28;20209;-79
2022/04/24 12:00:34;;;;;;;10.70;9.60;;;;;;;;;;4987508;28;20196;-78
2022/04/24 12:03:00;;;;;;;11.55;10.35;;;;;;;;;;4985436;28;20176;-78
2022/04/24 12:05:29;;;;;;;11.95;10.85;;;;;;;;;;5003165;28;20184;-79
2022/04/24 12:07:56;;;;;;;11.40;10.30;;;;;;;;;;4995876;28;20190;-77
2022/04/24 12:10:23;;;;;;;11.20;10.10;;;;;;;;;;5000277;28;20202;-77
2022/04/24 12:12:50;;;;;;;11.10;10.02;;;;;;;;;;4982188;28;20206;-78
2022/04/24 12:15:17;;;;;;;9.60;8.80;;;;;;;;;;5002557;28;20242;-78
2022/04/24 12:17:53;;;;;;;9.25;8.35;;;;;;;;;;5002583;28;20486;-78
2022/04/24 12:20:20;;;;;;;10.63;9.10;;;;;;;;;;5004882;28;20202;-78
2022/04/24 12:22:46;;;;;;;10.40;9.40;;;;;;;;;;4983546;28;20230;-78
2022/04/24 12:25:19;;;;;;;10.98;9.65;;;;;;;;;;4987463;28;20433;-78
2022/04/24 12:27:52;;;;;;;10.73;8.45;;;;;;;;;;5001932;28;20245;-78
2022/04/24 12:30:18;;;;;;;10.15;9.15;;;;;;;;;;5000757;28;20257;-77
2022/04/24 12:32:44;;;;;;;11.37;10.17;;;;;;;;;;5003261;28;20183;-78
2022/04/24 12:35:25;;;;;;;10.60;9.60;;;;;;;;;;4986806;28;20392;-78
2022/04/24 12:37:51;;;;;;;9.13;8.43;;;;;;;;;;4987897;28;20465;-78
2022/04/24 12:40:17;;;;;;;8.03;7.33;;;;;;;;;;5002189;28;20665;-78
2022/04/24 12:42:51;;;;;;;9.90;8.83;;;;;;;;;;4987463;28;20479;-78
2022/04/24 12:45:17;;;;;;;10.05;9.05;;;;;;;;;;5000768;28;20446;-84
2022/04/24 12:47:43;;;;;;;16.30;10.77;;;;;;;;;;4985498;28;20181;-77
2022/04/24 12:50:10;;;;;;;10.27;9.38;;;;;;;;;;4986943;28;20478;-77
2022/04/24 12:52:36;;;;;;;10.55;9.55;;;;;;;;;;4983585;28;20244;-77
2022/04/24 12:55:02;;;;;;;10.60;9.65;;;;;;;;;;4988662;28;20177;-79
2022/04/24 12:57:28;;;;;;;10.80;8.30;;;;;;;;;;5000069;28;20190;-77
2022/04/24 12:59:53;;;;;;;9.43;7.57;;;;;;;;;;5001693;28;20946;-81
2022/04/24 13:02:21;;;;;;;9.17;8.27;;;;;;;;;;4997736;28;20426;-85
2022/04/24 13:04:47;;;;;;;10.57;9.57;;;;;;;;;;4995475;28;20436;-79
2022/04/24 13:07:13;;;;;;;9.53;8.43;;;;;;;;;;4984841;28;20402;-79
2022/04/24 13:09:39;;;;;;;9.53;8.63;;;;;;;;;;4984252;28;20444;-78
2022/04/24 13:12:06;;;;;;;11.27;7.93;;;;;;;;;;4993790;28;20455;-78
2022/04/24 13:14:32;;;;;;;11.00;8.10;;;;;;;;;;4998091;28;20426;-79
2022/04/24 13:19:43;;;;;;;9.60;7.23;;;;;;;;;;5000293;28;20477;-80
2022/04/24 13:22:10;;;;;;;7.23;6.63;;;;;;;;;;4983006;28;20414;-80
2022/04/24 13:24:36;;;;;;;9.13;8.33;;;;;;;;;;5000287;28;20469;-81
2022/04/24 13:27:02;;;;;;;7.83;7.13;;;;;;;;;;4999927;28;20446;-80
2022/04/24 13:29:29;;;;;;;7.43;6.73;;;;;;;;;;5004546;28;20500;-80
2022/04/24 13:31:55;;;;;;;11.93;6.43;;;;;;;;;;4988245;28;20813;-79
2022/04/24 13:34:21;;;;;;;11.77;7.85;;;;;;;;;;4999372;28;20446;-81
2022/04/24 13:38:17;;;;;;;8.63;7.77;;;;;;;;;;5000123;28;20254;-80
2022/04/24 13:39:33;;;;;;;7.80;7.00;;;;;;;;;;4999889;28;20441;-80
2022/04/24 13:41:59;;;;;;;16.17;7.60;;;;;;;;;;5005039;28;20272;-81
2022/04/24 13:44:26;;;;;;;8.20;7.40;;;;;;;;;;5010356;28;20181;-80
2022/04/24 13:46:53;;;;;;;8.85;7.95;;;;;;;;;;5006117;28;20471;-82
2022/04/24 13:49:20;;;;;;;7.20;6.60;;;;;;;;;;4994145;28;20193;-81
2022/04/24 13:51:46;;;;;;;8.38;7.40;;;;;;;;;;4994203;28;20210;-82
2022/04/24 13:54:12;;;;;;;17.63;8.70;;;;;;;;;;4991462;28;20197;-80
2022/04/24 13:56:39;;;;;;;8.33;7.63;;;;;;;;;;4991265;28;20191;-80
2022/04/24 13:59:05;;;;;;;6.90;6.40;;;;;;;;;;5009188;28;20457;-81
2022/04/24 14:01:31;;;;;;;12.25;7.57;;;;;;;;;;4994140;28;20418;-80
2022/04/24 14:03:57;;;;;;;12.73;6.70;;;;;;;;;;4998583;28;20190;-80
2022/04/24 14:06:23;;;;;;;10.23;6.93;;;;;;;;;;5006390;28;20522;-80
2022/04/24 14:08:50;;;;;;;6.80;6.10;;;;;;;;;;5007753;28;20481;-81
2022/04/24 14:11:16;;;;;;;6.40;5.90;;;;;;;;;;5008748;28;20433;-80
2022/04/24 14:13:42;;;;;;;7.33;6.60;;;;;;;;;;5007380;28;20194;-81
2022/04/24 14:16:08;;;;;;;7.60;7.03;;;;;;;;;;5006230;28;20456;-80
2022/04/24 14:18:34;;;;;;;7.50;6.80;;;;;;;;;;5006448;28;20221;-80
2022/04/24 14:21:00;;;;;;;11.70;6.70;;;;;;;;;;4990959;28;20452;-80
2022/04/24 14:23:26;;;;;;;6.80;6.00;;;;;;;;;;5009194;28;20257;-80
2022/04/24 14:25:55;;;;;;;8.40;6.13;;;;;;;;;;5005897;28;20179;-80
2022/04/24 14:28:21;;;;;;;7.57;6.70;;;;;;;;;;5005470;28;20440;-81
2022/04/24 14:30:47;;;;;;;6.97;6.38;;;;;;;;;;4993600;28;20573;-80
2022/04/24 14:33:13;;;;;;;7.73;5.70;;;;;;;;;;4992516;28;20189;-79
2022/04/24 14:35:42;;;;;;;7.20;6.50;;;;;;;;;;5007937;28;20416;-80
2022/04/24 14:38:08;;;;;;;6.55;5.82;;;;;;;;;;5008985;28;20208;-79